Terminal Aerodrome Forecast
Issued by NWS

Home | Current Version | Previous Version | Text Only | Print | Product List | Glossary On
Versions: 1 2 3 4 5 6 7 8 9 10 11 12 13 14 15 16 17 18 19 20 21
000
FTUS45 KSLC 012323
TAFBCE
TAF
KBCE 012323Z 0200/0224 10007KT 5SM -RA BR SCT015 BKN025
     FM020100 06006KT P6SM VCSH SCT030 BKN060
     FM020600 29006KT P6SM SCT040 BKN080
     FM021800 11008KT P6SM VCSH SCT030 BKN060=

USA.gov is the U.S. government's official web portal to all federal, state and local government web resources and services.